createdAt,value
2023-01-26T00:00:10.355Z,169.03
2023-01-26T00:02:41.576Z,157.10
2023-01-26T00:05:10.457Z,175.90
2023-01-26T00:07:42.719Z,163.37
2023-01-26T00:10:12.434Z,168.73
2023-01-26T00:12:40.980Z,169.87
2023-01-26T00:15:09.824Z,164.03
2023-01-26T00:17:38.467Z,157.43
2023-01-26T00:20:10.020Z,161.93
2023-01-26T00:22:38.685Z,162.07
2023-01-26T00:25:07.834Z,166.43
2023-01-26T00:27:36.297Z,170.60
2023-01-26T00:30:05.464Z,160.57
2023-01-26T00:32:35.866Z,160.93
2023-01-26T00:35:04.572Z,170.90
2023-01-26T00:37:34.739Z,163.00
2023-01-26T00:40:03.270Z,173.93
2023-01-26T00:42:31.706Z,170.73
2023-01-26T00:45:00.184Z,164.37
2023-01-26T00:47:28.562Z,159.13
2023-01-26T00:49:57.112Z,167.57
2023-01-26T00:52:25.481Z,168.60
2023-01-26T00:54:55.406Z,153.80
2023-01-26T00:57:23.937Z,164.43
2023-01-26T00:59:52.426Z,154.90
2023-01-26T01:02:21.285Z,152.27
2023-01-26T01:04:49.635Z,148.63
2023-01-26T01:07:18.033Z,152.27
2023-01-26T01:09:47.040Z,140.30
2023-01-26T01:12:16.910Z,131.97
2023-01-26T01:14:45.418Z,129.53
2023-01-26T01:17:13.737Z,131.07
2023-01-26T01:19:42.413Z,131.13
2023-01-26T01:22:11.259Z,138.17
2023-01-26T01:24:39.771Z,132.37
2023-01-26T01:27:08.188Z,123.93
2023-01-26T01:29:38.290Z,132.10
2023-01-26T01:32:06.877Z,133.17
2023-01-26T01:34:35.449Z,127.47
2023-01-26T01:37:03.760Z,131.10
2023-01-26T01:39:32.259Z,143.33
2023-01-26T01:42:00.629Z,130.10
2023-01-26T01:44:29.044Z,135.20
2023-01-26T01:47:01.270Z,131.77
2023-01-26T01:49:33.435Z,116.90
2023-01-26T01:52:06.953Z,141.77
2023-01-26T01:54:39.553Z,136.47
2023-01-26T01:57:15.684Z,133.00
2023-01-26T01:59:45.928Z,132.07
2023-01-26T02:02:16.232Z,129.13
2023-01-26T02:04:44.979Z,134.23
2023-01-26T02:07:13.701Z,143.20
2023-01-26T02:10:00.812Z,131.30
2023-01-26T02:12:32.218Z,140.77
2023-01-26T02:15:01.813Z,145.97
2023-01-26T02:17:31.734Z,144.33
2023-01-26T02:20:06.349Z,137.50
2023-01-26T02:22:42.913Z,137.47
2023-01-26T02:25:20.596Z,139.07
2023-01-26T02:27:50.724Z,143.83
2023-01-26T02:30:19.343Z,148.00
2023-01-26T02:32:48.349Z,140.10
2023-01-26T02:35:16.835Z,150.17
2023-01-26T02:37:45.278Z,141.30
2023-01-26T02:40:25.016Z,144.77
2023-01-26T02:42:55.443Z,148.67
2023-01-26T02:45:25.031Z,150.73
2023-01-26T02:47:53.779Z,141.17
2023-01-26T02:50:21.380Z,146.40
2023-01-26T02:52:49.708Z,151.57
2023-01-26T02:55:25.079Z,141.47
2023-01-26T02:57:56.292Z,139.90
2023-01-26T03:00:26.521Z,151.40
2023-01-26T03:02:57.081Z,157.63
2023-01-26T03:05:25.546Z,140.27
2023-01-26T03:07:54.000Z,140.20
2023-01-26T03:10:24.271Z,147.63
2023-01-26T03:12:54.671Z,141.17
2023-01-26T03:15:40.702Z,146.60
2023-01-26T03:18:30.072Z,155.80
2023-01-26T03:21:18.006Z,150.43
2023-01-26T03:24:04.193Z,155.63
2023-01-26T03:26:50.390Z,172.40
2023-01-26T03:29:20.302Z,158.77
2023-01-26T03:31:48.813Z,157.17
2023-01-26T03:34:17.260Z,150.03
2023-01-26T03:36:45.603Z,151.33
2023-01-26T03:39:34.411Z,147.33
2023-01-26T03:42:21.030Z,141.47
2023-01-26T03:45:08.952Z,155.27
2023-01-26T03:47:55.350Z,149.30
2023-01-26T03:50:41.708Z,147.13
2023-01-26T03:53:34.869Z,158.90
2023-01-26T03:56:21.876Z,139.23
2023-01-26T03:58:52.661Z,140.80
2023-01-26T04:01:27.819Z,136.63
2023-01-26T04:04:15.004Z,143.87
2023-01-26T04:07:03.410Z,135.00
2023-01-26T04:09:32.484Z,142.83
2023-01-26T04:12:02.421Z,149.53
2023-01-26T04:14:49.677Z,148.43
2023-01-26T04:17:38.930Z,132.97
2023-01-26T04:20:25.801Z,141.73
2023-01-26T04:22:54.407Z,133.20
2023-01-26T04:25:23.794Z,129.07
2023-01-26T04:27:52.494Z,129.17
2023-01-26T04:30:21.211Z,130.17
2023-01-26T04:32:52.525Z,124.93
2023-01-26T04:35:20.967Z,122.47
2023-01-26T04:37:49.697Z,152.20
2023-01-26T04:40:18.276Z,126.53
2023-01-26T04:42:46.765Z,135.43
2023-01-26T04:45:15.229Z,140.47
2023-01-26T04:47:43.620Z,146.07
2023-01-26T04:50:13.835Z,130.60
2023-01-26T04:52:42.532Z,118.70
2023-01-26T04:55:11.397Z,136.43
2023-01-26T04:57:40.297Z,129.27
2023-01-26T05:00:11.154Z,127.00
2023-01-26T05:02:40.407Z,129.40
2023-01-26T05:05:09.622Z,142.97
2023-01-26T05:07:39.389Z,122.27
2023-01-26T05:10:10.025Z,130.67
2023-01-26T05:12:42.838Z,156.03
2023-01-26T05:15:11.772Z,148.83
2023-01-26T05:17:40.472Z,147.07
2023-01-26T05:20:10.578Z,141.97
2023-01-26T05:22:40.554Z,134.00
2023-01-26T05:25:09.808Z,172.90
2023-01-26T05:27:38.231Z,140.50
2023-01-26T05:30:07.486Z,137.13
2023-01-26T05:32:36.430Z,154.60
2023-01-26T05:35:05.710Z,157.57
2023-01-26T05:37:34.846Z,146.57
2023-01-26T05:40:05.320Z,152.27
2023-01-26T05:42:35.002Z,121.57
2023-01-26T05:45:04.600Z,148.30
2023-01-26T05:47:33.046Z,173.77
2023-01-26T05:50:02.169Z,168.67
2023-01-26T05:52:30.640Z,184.87
2023-01-26T05:54:59.504Z,146.10
2023-01-26T05:57:29.933Z,175.20
2023-01-26T05:59:58.332Z,181.27
2023-01-26T06:02:28.080Z,147.13
2023-01-26T06:04:56.680Z,158.40
2023-01-26T06:07:26.399Z,156.20
2023-01-26T06:09:55.027Z,187.00
2023-01-26T06:12:23.780Z,169.00
2023-01-26T06:14:53.483Z,167.37
2023-01-26T06:17:22.344Z,193.37
2023-01-26T06:19:50.675Z,185.30
2023-01-26T06:22:19.069Z,176.23
2023-01-26T06:24:47.707Z,149.33
2023-01-26T06:27:17.524Z,176.67
2023-01-26T06:29:46.203Z,177.33
2023-01-26T06:32:16.583Z,188.10
2023-01-26T06:34:45.020Z,176.20
2023-01-26T06:37:14.059Z,182.37
2023-01-26T06:39:42.753Z,165.67
2023-01-26T06:42:13.076Z,234.87
2023-01-26T06:44:41.505Z,163.17
2023-01-26T06:47:09.876Z,163.37
2023-01-26T06:49:39.631Z,120.93
2023-01-26T06:52:27.935Z,158.23
2023-01-26T06:54:59.656Z,181.40
2023-01-26T06:57:29.044Z,164.07
2023-01-26T06:59:58.036Z,144.80
2023-01-26T07:02:26.457Z,175.87
2023-01-26T07:04:56.576Z,143.03
2023-01-26T07:07:24.981Z,171.60
2023-01-26T07:09:53.348Z,192.70
2023-01-26T07:12:21.760Z,115.17
2023-01-26T07:14:51.431Z,119.23
2023-01-26T07:17:19.891Z,129.33
2023-01-26T07:19:48.455Z,107.03
2023-01-26T07:22:18.340Z,110.83
2023-01-26T07:24:46.827Z,82.63
2023-01-26T07:27:15.227Z,103.77
2023-01-26T07:29:43.672Z,91.03
2023-01-26T07:32:12.064Z,94.37
2023-01-26T07:34:40.459Z,100.43
2023-01-26T07:37:10.673Z,73.93
2023-01-26T07:39:40.361Z,65.93
2023-01-26T07:42:10.721Z,73.23
2023-01-26T07:44:39.080Z,74.63
2023-01-26T07:47:07.553Z,53.47
2023-01-26T07:49:35.934Z,75.13
2023-01-26T07:52:06.260Z,82.13
2023-01-26T07:54:34.635Z,65.50
2023-01-26T07:57:06.993Z,62.63
2023-01-26T07:59:35.701Z,70.90
2023-01-26T08:02:04.658Z,80.33
2023-01-26T08:04:33.222Z,50.63
2023-01-26T08:07:02.563Z,88.20
2023-01-26T08:09:31.122Z,76.70
2023-01-26T08:11:59.620Z,57.30
2023-01-26T08:14:41.663Z,57.07
2023-01-26T08:17:13.680Z,74.87
2023-01-26T08:19:42.005Z,54.10
2023-01-26T08:22:10.480Z,70.77
2023-01-26T08:24:38.933Z,58.47
2023-01-26T08:27:07.443Z,45.63
2023-01-26T08:29:37.532Z,46.77
2023-01-26T08:32:06.091Z,57.63
2023-01-26T08:34:34.458Z,30.80
2023-01-26T08:37:03.227Z,51.80
2023-01-26T08:39:31.664Z,38.17
2023-01-26T08:42:00.066Z,44.37
2023-01-26T08:44:28.445Z,40.27
2023-01-26T08:46:58.184Z,36.93
2023-01-26T08:49:26.708Z,36.67
2023-01-26T08:51:55.081Z,30.70
2023-01-26T08:54:23.649Z,42.50
2023-01-26T08:56:53.429Z,32.00
2023-01-26T08:59:21.912Z,23.47
2023-01-26T09:01:51.362Z,27.97
2023-01-26T09:04:21.222Z,22.83
2023-01-26T09:06:49.772Z,17.57
2023-01-26T09:09:18.058Z,30.87
2023-01-26T09:11:46.436Z,28.80
2023-01-26T09:14:14.966Z,23.23
2023-01-26T09:16:43.413Z,16.57
2023-01-26T09:19:13.147Z,19.43
2023-01-26T09:21:43.018Z,13.90
2023-01-26T09:24:11.488Z,23.20
2023-01-26T09:26:40.341Z,20.77
2023-01-26T09:29:08.907Z,12.27
2023-01-26T09:31:37.457Z,16.07
2023-01-26T09:34:05.808Z,9.50
2023-01-26T09:36:34.628Z,25.63
2023-01-26T09:39:04.417Z,19.70
2023-01-26T09:42:01.563Z,25.20
2023-01-26T09:44:34.668Z,11.83
2023-01-26T09:47:32.339Z,15.73
2023-01-26T09:50:05.741Z,6.67
2023-01-26T09:52:36.855Z,39.07
2023-01-26T09:55:15.657Z,12.93
2023-01-26T09:57:50.510Z,19.30
2023-01-26T10:00:23.154Z,19.03
2023-01-26T10:03:02.631Z,13.83
2023-01-26T10:05:41.158Z,15.10
2023-01-26T10:08:14.245Z,9.57
2023-01-26T10:10:48.164Z,14.43
2023-01-26T10:13:18.047Z,13.20
2023-01-26T10:15:50.566Z,20.80
2023-01-26T10:18:23.401Z,10.37
2023-01-26T10:20:55.177Z,21.33
2023-01-26T10:23:26.778Z,13.70
2023-01-26T10:26:03.103Z,19.50
2023-01-26T10:28:35.191Z,14.97
2023-01-26T10:31:05.544Z,20.63
2023-01-26T10:33:36.372Z,18.00
2023-01-26T10:36:07.364Z,22.47
2023-01-26T10:38:44.020Z,21.23
2023-01-26T10:41:30.295Z,6.53
2023-01-26T10:44:00.699Z,7.27
2023-01-26T10:46:32.037Z,3.60
2023-01-26T10:49:02.596Z,10.57
2023-01-26T10:51:33.122Z,18.93
2023-01-26T10:54:22.739Z,12.70
2023-01-26T10:56:55.674Z,22.33
2023-01-26T10:59:36.202Z,17.80
2023-01-26T11:02:23.451Z,12.97
2023-01-26T11:05:15.250Z,18.20
2023-01-26T11:07:45.748Z,14.87
2023-01-26T11:10:21.196Z,20.53
2023-01-26T11:12:51.853Z,8.57
2023-01-26T11:15:22.176Z,15.57
2023-01-26T11:17:57.993Z,12.97
2023-01-26T11:20:57.522Z,15.17
2023-01-26T11:23:44.325Z,14.63
2023-01-26T11:26:48.591Z,18.83
2023-01-26T11:29:39.395Z,6.80
2023-01-26T11:32:17.119Z,10.40
2023-01-26T11:34:52.348Z,12.17
2023-01-26T11:37:43.894Z,9.33
2023-01-26T11:40:29.293Z,6.87
2023-01-26T11:43:15.129Z,7.30
2023-01-26T11:46:05.376Z,8.27
2023-01-26T11:48:45.476Z,7.13
2023-01-26T12:37:27.925Z,9.10
2023-01-26T12:40:02.782Z,9.18
2023-01-26T12:43:09.480Z,16.80
2023-01-26T12:45:41.745Z,9.70
2023-01-26T12:48:16.021Z,14.50
2023-01-26T12:50:48.879Z,11.53
2023-01-26T12:53:24.577Z,10.93
2023-01-26T12:55:56.992Z,7.55
2023-01-26T12:58:28.954Z,12.23
2023-01-26T13:01:03.656Z,8.13
2023-01-26T13:03:38.611Z,11.83
2023-01-26T13:06:21.106Z,11.10
2023-01-26T13:09:00.648Z,9.20
2023-01-26T13:11:50.952Z,16.17
2023-01-26T13:14:38.919Z,6.90
2023-01-26T13:17:50.051Z,12.27
2023-01-26T13:20:50.996Z,7.90
2023-01-26T13:23:46.760Z,9.10
2023-01-26T13:26:51.589Z,10.68
2023-01-26T13:29:35.585Z,16.33
2023-01-26T13:32:58.132Z,4.82
2023-01-26T13:35:28.069Z,13.77
2023-01-26T13:38:03.789Z,5.25
2023-01-26T13:40:35.163Z,6.20
2023-01-26T13:43:25.845Z,3.40
2023-01-26T13:46:09.169Z,6.90
2023-01-26T13:48:44.134Z,6.03
2023-01-26T13:51:17.243Z,3.90
2023-01-26T13:53:50.233Z,5.90
2023-01-26T13:56:27.648Z,8.87
2023-01-26T13:59:08.835Z,7.27
2023-01-26T14:01:43.397Z,7.70
2023-01-26T14:04:15.779Z,6.50
2023-01-26T14:06:49.909Z,6.13
2023-01-26T14:09:18.806Z,2.47
2023-01-26T14:11:54.944Z,8.57
2023-01-26T14:14:28.696Z,7.53
2023-01-26T14:17:00.061Z,9.50
2023-01-26T14:19:29.625Z,11.83
2023-01-26T14:22:00.187Z,8.20
2023-01-26T14:24:33.960Z,6.30
2023-01-26T14:27:04.020Z,4.03
2023-01-26T14:29:39.567Z,3.30
2023-01-26T14:32:17.250Z,7.80
2023-01-26T14:34:53.634Z,4.93
2023-01-26T14:37:22.025Z,6.57
2023-01-26T14:39:50.361Z,2.77
2023-01-26T14:42:20.999Z,3.72
2023-01-26T14:44:50.706Z,13.40
2023-01-26T14:47:22.397Z,7.70
2023-01-26T14:49:56.296Z,9.60
2023-01-26T14:52:27.103Z,7.40
2023-01-26T14:54:57.378Z,7.03
2023-01-26T14:57:28.358Z,3.72
2023-01-26T15:00:00.854Z,4.25
2023-01-26T15:02:37.503Z,9.02
2023-01-26T15:05:14.391Z,5.97
2023-01-26T15:07:44.992Z,9.20
2023-01-26T15:10:37.043Z,6.72
2023-01-26T15:13:19.545Z,5.63
2023-01-26T15:16:02.895Z,5.07
2023-01-26T15:18:33.175Z,4.78
2023-01-26T15:21:10.968Z,9.00
2023-01-26T15:23:43.514Z,7.27
2023-01-26T15:26:15.634Z,1.05
2023-01-26T15:28:44.032Z,19.17
2023-01-26T15:31:22.490Z,9.90
2023-01-26T15:33:52.688Z,14.50
2023-01-26T15:36:33.548Z,13.80
2023-01-26T15:39:12.885Z,6.57
2023-01-26T15:41:41.829Z,7.93
2023-01-26T15:44:16.510Z,7.73
2023-01-26T15:46:47.006Z,8.47
2023-01-26T15:49:18.386Z,5.13
2023-01-26T15:51:46.940Z,8.50
2023-01-26T15:54:15.248Z,8.90
2023-01-26T15:56:43.751Z,5.37
2023-01-26T15:59:12.137Z,10.00
2023-01-26T16:01:40.959Z,17.17
2023-01-26T16:04:13.966Z,3.08
2023-01-26T16:06:42.725Z,4.57
2023-01-26T16:09:11.110Z,5.60
2023-01-26T16:11:47.552Z,6.07
2023-01-26T16:14:16.443Z,4.07
2023-01-26T16:16:44.963Z,5.37
2023-01-26T16:19:34.495Z,3.57
2023-01-26T16:22:04.158Z,13.07
2023-01-26T16:24:32.602Z,1.13
2023-01-26T16:27:00.939Z,1.30
2023-01-26T16:29:29.360Z,3.60
2023-01-26T16:31:57.839Z,4.47
2023-01-26T16:34:28.131Z,3.73
2023-01-26T16:36:56.770Z,2.10
2023-01-26T16:39:25.173Z,3.90
2023-01-26T16:41:53.689Z,9.77
2023-01-26T16:44:23.090Z,5.30
2023-01-26T16:46:51.555Z,1.63
2023-01-26T16:49:19.911Z,7.23
2023-01-26T16:51:49.706Z,6.40
2023-01-26T16:54:18.173Z,4.10
2023-01-26T16:56:46.598Z,5.77
2023-01-26T16:59:14.919Z,1.83
2023-01-26T17:01:43.647Z,1.20
2023-01-26T17:04:12.395Z,3.13
2023-01-26T17:06:41.014Z,3.43
2023-01-26T17:09:10.941Z,5.87
2023-01-26T17:11:39.302Z,0.50
2023-01-26T17:14:07.719Z,8.03
2023-01-26T17:16:37.059Z,2.23
2023-01-26T17:19:07.300Z,1.70
2023-01-26T17:21:37.465Z,2.27
2023-01-26T17:24:06.984Z,3.80
2023-01-26T17:26:36.754Z,5.83
2023-01-26T17:29:05.488Z,3.73
2023-01-26T17:31:34.407Z,4.20
2023-01-26T17:34:03.966Z,3.63
2023-01-26T17:36:32.435Z,1.80
2023-01-26T17:39:00.835Z,4.87
2023-01-26T17:41:29.780Z,5.37
2023-01-26T17:43:59.448Z,3.60
2023-01-26T17:46:27.778Z,7.07
2023-01-26T17:48:56.359Z,2.33
2023-01-26T17:51:24.748Z,4.33
2023-01-26T17:53:54.296Z,6.03
2023-01-26T17:56:23.598Z,6.47
2023-01-26T17:58:53.875Z,4.40
2023-01-26T18:01:25.482Z,4.90
2023-01-26T18:03:54.646Z,3.60
2023-01-26T18:06:23.074Z,7.30
2023-01-26T18:08:51.485Z,3.90
2023-01-26T18:11:19.867Z,4.33
2023-01-26T18:13:48.729Z,4.07
2023-01-26T18:16:19.728Z,5.83
2023-01-26T18:18:49.652Z,4.67
2023-01-26T18:21:20.226Z,9.23
2023-01-26T18:23:50.659Z,5.70
2023-01-26T18:26:20.281Z,4.90
2023-01-26T18:28:49.428Z,3.70
2023-01-26T18:31:19.658Z,12.20
2023-01-26T18:33:49.615Z,5.87
2023-01-26T18:36:20.208Z,8.60
2023-01-26T18:38:51.492Z,7.93
2023-01-26T18:41:21.504Z,4.70
2023-01-26T18:43:52.295Z,7.33
2023-01-26T18:46:21.113Z,7.60
2023-01-26T18:48:52.867Z,0.97
2023-01-26T18:51:22.627Z,4.23
2023-01-26T18:53:51.058Z,5.10
2023-01-26T18:56:19.650Z,7.17
2023-01-26T18:58:48.066Z,5.93
2023-01-26T19:01:18.709Z,5.70
2023-01-26T19:03:54.983Z,11.97
2023-01-26T19:06:26.151Z,9.80
2023-01-26T19:08:58.674Z,3.03
2023-01-26T19:11:28.688Z,4.40
2023-01-26T19:13:57.046Z,7.53
2023-01-26T19:16:25.988Z,9.67
2023-01-26T19:18:55.501Z,7.10
2023-01-26T19:21:26.064Z,6.50
2023-01-26T19:23:56.678Z,4.73
2023-01-26T19:26:27.953Z,4.23
2023-01-26T19:28:56.482Z,8.77
2023-01-26T19:31:26.459Z,8.80
2023-01-26T19:33:56.577Z,5.43
2023-01-26T19:36:27.516Z,11.23
2023-01-26T19:38:56.052Z,4.53
2023-01-26T19:41:25.820Z,7.47
2023-01-26T19:43:54.473Z,4.37
2023-01-26T19:46:23.125Z,7.30
2023-01-26T19:48:51.546Z,5.83
2023-01-26T19:51:21.630Z,17.13
2023-01-26T19:53:53.106Z,4.03
2023-01-26T19:56:23.100Z,5.50
2023-01-26T19:58:52.411Z,7.40
2023-01-26T20:01:21.615Z,9.50
2023-01-26T20:03:51.065Z,7.63
2023-01-26T20:06:21.913Z,4.70
2023-01-26T20:08:51.728Z,4.27
2023-01-26T20:11:24.900Z,3.20
2023-01-26T20:13:56.307Z,9.03
2023-01-26T20:16:28.034Z,4.73
2023-01-26T20:18:57.015Z,6.70
2023-01-26T20:21:25.861Z,6.27
2023-01-26T20:23:56.402Z,2.50
2023-01-26T20:26:26.279Z,7.17
2023-01-26T20:28:58.139Z,4.00
2023-01-26T20:31:27.837Z,5.77
2023-01-26T20:33:56.542Z,8.73
2023-01-26T20:36:27.241Z,4.13
2023-01-26T20:38:57.288Z,9.63
2023-01-26T20:41:27.544Z,14.33
2023-01-26T20:44:01.205Z,5.07
2023-01-26T20:46:32.303Z,8.80
2023-01-26T20:49:00.956Z,10.90
2023-01-26T20:51:33.893Z,5.87
2023-01-26T20:54:06.281Z,8.03
2023-01-26T20:56:35.611Z,5.30
2023-01-26T20:59:04.977Z,5.60
2023-01-26T21:01:35.023Z,7.57
2023-01-26T21:04:05.358Z,3.93
2023-01-26T21:06:34.143Z,8.27
2023-01-26T21:09:05.669Z,6.10
2023-01-26T21:11:34.593Z,9.37
2023-01-26T21:14:04.341Z,4.67
2023-01-26T21:16:35.666Z,6.13
2023-01-26T21:19:05.539Z,2.23
2023-01-26T21:21:34.193Z,6.30
2023-01-26T21:24:04.945Z,2.40
2023-01-26T21:26:34.806Z,3.53
2023-01-26T21:29:03.686Z,1.67
2023-01-26T21:31:34.297Z,11.80
2023-01-26T21:34:03.729Z,9.60
2023-01-26T21:36:34.248Z,7.20
2023-01-26T21:39:04.870Z,5.17
2023-01-26T21:41:52.181Z,4.33
2023-01-26T21:44:22.591Z,5.53
2023-01-26T21:46:52.838Z,3.07
2023-01-26T21:49:21.392Z,2.93
2023-01-26T21:52:07.563Z,10.50
2023-01-26T21:54:37.571Z,8.53
2023-01-26T21:57:28.833Z,3.13
2023-01-26T21:59:56.577Z,9.77
2023-01-26T22:02:25.245Z,4.63
2023-01-26T22:04:54.285Z,7.27
2023-01-26T22:07:23.297Z,6.40
2023-01-26T22:09:53.138Z,6.22
2023-01-26T22:12:23.001Z,3.63
2023-01-26T22:14:52.224Z,6.43
2023-01-26T22:17:21.670Z,5.43
2023-01-26T22:19:50.072Z,7.23
2023-01-26T22:22:18.378Z,9.60
2023-01-26T22:24:46.813Z,10.17
2023-01-26T22:27:16.571Z,9.93
2023-01-26T22:29:44.861Z,4.80
2023-01-26T22:32:14.019Z,7.87
2023-01-26T22:34:42.348Z,8.00
2023-01-26T22:37:10.708Z,5.80
2023-01-26T22:39:39.237Z,7.63
2023-01-26T22:42:07.587Z,10.10
2023-01-26T22:44:37.438Z,9.97
2023-01-26T22:47:06.055Z,8.63
2023-01-26T22:49:34.408Z,8.40
2023-01-26T22:52:06.627Z,7.57
2023-01-26T22:54:35.478Z,6.20
2023-01-26T22:57:04.480Z,2.30
2023-01-26T22:59:32.792Z,5.13
2023-01-26T23:02:02.699Z,6.77
2023-01-26T23:04:31.063Z,3.20
2023-01-26T23:06:59.625Z,7.77
2023-01-26T23:09:29.012Z,7.80
2023-01-26T23:11:57.316Z,3.47
2023-01-26T23:14:25.777Z,8.90
2023-01-26T23:16:54.324Z,6.30
2023-01-26T23:19:24.582Z,2.53
2023-01-26T23:21:55.324Z,2.30
2023-01-26T23:24:23.825Z,9.63
2023-01-26T23:26:52.231Z,11.63
2023-01-26T23:29:20.592Z,3.77
2023-01-26T23:31:49.043Z,6.77
2023-01-26T23:34:17.432Z,11.17
2023-01-26T23:36:47.161Z,8.27
2023-01-26T23:39:15.632Z,3.80
2023-01-26T23:41:43.984Z,4.00
2023-01-26T23:44:13.179Z,4.37
2023-01-26T23:46:41.723Z,9.43
2023-01-26T23:49:10.209Z,5.20
2023-01-26T23:51:38.726Z,8.67
2023-01-26T23:54:08.765Z,7.30
2023-01-26T23:56:37.097Z,4.93
2023-01-26T23:59:05.457Z,7.07
